Holcombe, WI (54745)

6:25 AM CDT on August 31, 2015 (GMT -0500)
Jim Falls 3W | | Change Station
CLOSE
Current Station
Personal Weather Station
Location: Jim Falls, WI
Elevation: 1061 ft
Nearby Weather Stations

Elev 1061 ft 45.08 °N, 91.33 °W | Updated 2 seconds ago

Fog
Fog
61.9 °F
Feels Like 61.9 °F
N
0.0
Wind Variable Wind from South
Gusts 0.0 mph

Today
High -- | Low -- °F
--% Chance of Precip.
Yesterday
High -- | Low -- °F
Precip. -- in
6:25 AM 7:44 PM
Waning Gibbous, 96% visible
Pressure 30.00 in
Visibility 0.5 miles
Clouds Overcast 100 ft
Dew Point 59 °F
Humidity 90%
Rainfall 0.00 in
Snow Depth Not available.
UV 0 out of 12
Pollen 10.60 out of 12
Air Quality Not available.
Flu Activity Not available.
METAR KRCX 311055Z AUTO 17003KT 1/2SM FG OVC001 17/17 A3000 RMK AO2 T01730168
Pressure 30.00 in
Visibility 0.5 miles
Clouds Overcast 100 ft
Dew Point 59 °F
Humidity 90%
Rainfall 0.00 in
Snow Depth Not available.
UV 0 out of 12
Pollen 10.60 out of 12
Air Quality Not available.
Flu Activity Not available.
METAR KRCX 311055Z AUTO 17003KT 1/2SM FG OVC001 17/17 A3000 RMK AO2 T01730168

10-Day Weather Forecast

×

Almanac

Astronomy

Aug. 31, 2015 Rise Set
Actual Time
Civil Twilight
Nautical Twilight
Astronomical Twilight
Moon
Length of Visible Light
Length of Day
Tomorrow will be .
, % of the Moon is Illuminated

Today's Extremes

State Highs State Lows

Community

WunderPhotos

Upload Photos

1,851,217 photos uploaded!

WunderBlogs® & News

Nearby

Air Quality

  Air Quality AQ Index Pollutant
Not available.

Snow Depth

Station Depth Elevation

Earthquake Activity

City Distance Mag. Time & Date
Minimum magnitude displayed is 2.5.

Coastal Water Temperatures

Place Temperature

Stations

Nearby Weather Stations

Station Location Temp. Windchill Dew Point Humidity Wind Precip. Elev Updated Type